Time;durP1;ratioP1;P1;durP2;ratioP2;P2;SDS_P1;SDS_P2;PMS_P1;PMS_P2;Temp;Humidity;BMP_temperature;BMP_pressure;BME280_temperature;BME280_humidity;BME280_pressure;Samples;Min_cycle;Max_cycle;Signal;HPM_P1;HPM_P2
2022/10/09 00:00:36;;;;;;;10.45;1.73;;;;;;;9.45;93.18;101649.50;4974969;28;20136;-81
2022/10/09 00:03:06;;;;;;;4.43;1.65;;;;;;;9.40;93.08;101643.56;4990654;28;20053;-81
2022/10/09 00:05:34;;;;;;;12.60;2.55;;;;;;;9.45;92.74;101646.00;4957193;28;20079;-80
2022/10/09 00:08:04;;;;;;;8.48;1.83;;;;;;;9.43;93.24;101658.38;4992472;28;20087;-83
2022/10/09 00:10:32;;;;;;;7.88;1.80;;;;;;;9.36;94.03;101661.19;4972468;28;20045;-82
2022/10/09 00:13:00;;;;;;;9.05;2.15;;;;;;;9.30;94.83;101661.44;4992557;28;20037;-80
2022/10/09 00:15:29;;;;;;;9.75;2.13;;;;;;;9.25;95.08;101667.78;4975198;28;20137;-81
2022/10/09 00:17:57;;;;;;;10.57;2.05;;;;;;;9.26;94.18;101672.97;4974401;28;20046;-82
2022/10/09 00:20:24;;;;;;;7.00;1.98;;;;;;;9.24;95.17;101668.69;4975164;28;20120;-81
2022/10/09 00:22:58;;;;;;;7.05;1.88;;;;;;;9.20;95.05;101672.34;4992898;28;20041;-80
2022/10/09 00:25:26;;;;;;;7.03;2.40;;;;;;;9.18;95.50;101680.28;5022354;28;20053;-82
2022/10/09 00:27:56;;;;;;;13.38;2.20;;;;;;;9.21;95.34;101676.69;4987835;28;20050;-81
2022/10/09 00:30:27;;;;;;;9.10;2.40;;;;;;;9.25;95.03;101678.28;4959650;28;20635;-81
2022/10/09 00:32:58;;;;;;;8.40;2.20;;;;;;;9.15;95.77;101680.41;5012324;28;20053;-81
2022/10/09 00:35:26;;;;;;;6.70;1.45;;;;;;;9.10;96.05;101687.59;4994476;28;20060;-81
2022/10/09 00:37:54;;;;;;;7.65;2.25;;;;;;;9.05;96.65;101689.50;4963409;28;20120;-81
2022/10/09 00:40:25;;;;;;;8.00;1.77;;;;;;;9.00;96.70;101681.78;4993264;28;20042;-81
2022/10/09 00:42:57;;;;;;;9.30;1.98;;;;;;;8.98;97.06;101688.88;4994739;28;20060;-78
2022/10/09 00:45:25;;;;;;;6.88;2.10;;;;;;;8.95;97.98;101688.97;4961230;28;20050;-81
2022/10/09 00:47:56;;;;;;;13.50;2.05;;;;;;;9.00;96.61;101694.06;4979217;28;20046;-81
2022/10/09 00:50:40;;;;;;;5.55;2.13;;;;;;;8.99;97.12;101698.47;4977357;28;20046;-82
2022/10/09 00:53:10;;;;;;;7.85;1.98;;;;;;;8.99;96.68;101697.59;4987947;28;20045;-81
2022/10/09 00:55:42;;;;;;;9.20;2.05;;;;;;;9.01;96.68;101701.06;4979319;28;20057;-81
2022/10/09 00:58:11;;;;;;;9.48;2.60;;;;;;;8.98;97.02;101711.66;4983355;28;20365;-82
2022/10/09 01:00:40;;;;;;;8.27;2.33;;;;;;;8.96;96.94;101705.59;4964494;28;20047;-81
2022/10/09 01:03:09;;;;;;;8.93;2.03;;;;;;;8.93;96.30;101706.56;5016806;28;20385;-81
2022/10/09 01:06:46;;;;;;;9.00;2.03;;;;;;;8.93;96.97;101701.31;4982381;28;20045;-80
2022/10/09 01:09:20;;;;;;;8.13;2.22;;;;;;;8.97;96.70;101707.31;4911839;28;20062;-81
2022/10/09 01:12:09;;;;;;;8.00;1.95;;;;;;;8.95;97.29;101712.63;4996013;28;20095;-81
2022/10/09 01:15:05;;;;;;;6.60;1.63;;;;;;;8.91;97.31;101713.63;5010122;28;20058;-82
2022/10/09 01:17:37;;;;;;;5.30;2.35;;;;;;;8.85;97.96;101708.59;4963872;28;20436;-82
2022/10/09 01:20:05;;;;;;;9.50;1.90;;;;;;;8.82;97.62;101725.31;4999876;28;20041;-82
2022/10/09 01:23:00;;;;;;;8.13;2.08;;;;;;;8.79;98.44;101732.44;4997638;28;20065;-80
2022/10/09 01:25:49;;;;;;;11.63;1.95;;;;;;;8.73;99.22;101725.63;5007449;28;20041;-80
2022/10/09 01:28:18;;;;;;;8.73;2.13;;;;;;;8.78;98.55;101723.72;5029119;28;20047;-81
2022/10/09 01:30:50;;;;;;;9.23;1.90;;;;;;;8.75;98.79;101723.81;4991879;28;20050;-82
2022/10/09 01:33:20;;;;;;;9.23;2.78;;;;;;;8.79;98.67;101730.69;5002105;28;20049;-81
2022/10/09 01:35:48;;;;;;;10.18;2.15;;;;;;;8.74;99.75;101729.13;4979197;28;20046;-81
2022/10/09 01:38:22;;;;;;;12.30;2.53;;;;;;;8.67;99.84;101730.22;4993899;28;20125;-82
2022/10/09 01:40:52;;;;;;;11.95;2.53;;;;;;;8.60;100.00;101725.19;4997374;28;20057;-82
2022/10/09 01:43:24;;;;;;;6.78;2.15;;;;;;;8.59;100.00;101735.72;5000178;28;20504;-80
2022/10/09 01:46:12;;;;;;;7.53;1.90;;;;;;;8.62;100.00;101736.47;4966050;28;20501;-80
2022/10/09 01:48:40;;;;;;;10.25;2.13;;;;;;;8.57;100.00;101738.41;4993094;28;20050;-81
2022/10/09 01:51:11;;;;;;;10.30;2.72;;;;;;;8.55;100.00;101742.81;4980057;28;20046;-81
2022/10/09 01:53:38;;;;;;;9.48;2.08;;;;;;;8.68;100.00;101748.53;5020480;28;20057;-80
2022/10/09 01:56:17;;;;;;;11.05;2.13;;;;;;;8.62;100.00;101744.34;5008639;28;20073;-81
2022/10/09 01:58:58;;;;;;;15.20;2.50;;;;;;;8.54;100.00;101743.75;4977424;28;20100;-80
2022/10/09 02:01:43;;;;;;;8.95;2.15;;;;;;;8.55;100.00;101747.22;4982136;28;20060;-80
2022/10/09 02:04:14;;;;;;;13.98;2.35;;;;;;;8.56;100.00;101752.44;4986980;28;20064;-80
2022/10/09 02:06:47;;;;;;;11.95;2.33;;;;;;;8.52;100.00;101752.59;4978333;28;20152;-83
2022/10/09 02:09:16;;;;;;;9.82;2.20;;;;;;;8.48;100.00;101757.06;5015166;28;20429;-82
2022/10/09 02:11:51;;;;;;;5.35;1.60;;;;;;;8.46;100.00;101748.38;4994682;28;20046;-81
2022/10/09 02:14:19;;;;;;;10.30;2.30;;;;;;;8.46;100.00;101747.53;4972098;28;20054;-82
2022/10/09 02:16:53;;;;;;;8.68;2.08;;;;;;;8.47;100.00;101750.13;4967496;28;20064;-80
2022/10/09 02:19:38;;;;;;;6.13;2.10;;;;;;;8.47;100.00;101744.88;4992617;28;20061;-80
2022/10/09 02:22:11;;;;;;;4.95;1.63;;;;;;;8.55;100.00;101748.06;4994375;28;20508;-80
2022/10/09 02:24:39;;;;;;;9.60;1.80;;;;;;;8.59;100.00;101748.84;5005933;28;20075;-83
2022/10/09 02:27:10;;;;;;;9.95;2.40;;;;;;;8.59;100.00;101752.31;5012210;28;20037;-82
2022/10/09 02:29:43;;;;;;;8.88;1.90;;;;;;;8.55;100.00;101757.72;4961325;28;20056;-80
2022/10/09 02:32:12;;;;;;;10.00;2.10;;;;;;;8.53;100.00;101754.31;4979708;28;20469;-82
2022/10/09 02:34:41;;;;;;;9.73;2.08;;;;;;;8.56;100.00;101755.06;4991776;28;20054;-80
2022/10/09 02:37:10;;;;;;;9.63;2.30;;;;;;;8.55;100.00;101758.56;4990427;28;20053;-81
2022/10/09 02:39:48;;;;;;;7.45;1.90;;;;;;;8.55;100.00;101762.97;5011394;28;20488;-81
2022/10/09 02:42:17;;;;;;;10.77;2.42;;;;;;;8.57;100.00;101763.78;4947494;28;1275028;-81
2022/10/09 02:44:45;;;;;;;10.38;2.13;;;;;;;8.52;100.00;101761.31;4982608;28;20049;-80
2022/10/09 02:47:14;;;;;;;8.38;2.10;;;;;;;8.57;100.00;101759.41;4992454;28;20042;-81
2022/10/09 02:49:47;;;;;;;7.18;2.53;;;;;;;8.54;100.00;101764.75;4982570;28;20488;-80
2022/10/09 02:52:19;;;;;;;8.82;2.30;;;;;;;8.46;100.00;101761.50;5008663;28;20087;-81
2022/10/09 02:54:48;;;;;;;12.77;2.67;;;;;;;8.48;100.00;101756.22;4967867;28;20497;-80
2022/10/09 02:57:18;;;;;;;11.90;2.85;;;;;;;8.46;100.00;101761.50;5004382;28;20041;-80
2022/10/09 02:59:50;;;;;;;8.38;2.30;;;;;;;8.47;100.00;101760.63;4977792;28;20045;-80
2022/10/09 03:02:20;;;;;;;6.43;1.95;;;;;;;8.42;100.00;101764.25;5001092;28;20083;-82
2022/10/09 03:04:50;;;;;;;14.75;2.50;;;;;;;8.38;100.00;101765.31;4975925;28;20190;-80
2022/10/09 03:07:18;;;;;;;8.35;1.90;;;;;;;8.33;100.00;101768.00;5001925;28;20492;-81
2022/10/09 03:09:47;;;;;;;11.25;2.55;;;;;;;8.35;100.00;101777.56;4961949;28;20058;-80
2022/10/09 03:12:21;;;;;;;8.68;1.95;;;;;;;8.37;100.00;101767.03;4993530;28;20057;-80
2022/10/09 03:14:49;;;;;;;20.92;2.45;;;;;;;8.32;100.00;101774.16;5004246;28;20049;-81
2022/10/09 03:17:20;;;;;;;10.32;1.95;;;;;;;8.31;100.00;101775.06;4993858;28;20037;-82
2022/10/09 03:19:47;;;;;;;13.82;2.50;;;;;;;8.33;100.00;101770.63;4982559;28;20080;-82
2022/10/09 03:22:15;;;;;;;9.90;2.55;;;;;;;8.32;100.00;101779.41;4994875;28;20512;-82
2022/10/09 03:24:44;;;;;;;7.18;2.00;;;;;;;8.30;100.00;101779.47;5020884;28;20051;-82
2022/10/09 03:27:12;;;;;;;6.38;2.05;;;;;;;8.35;100.00;101781.94;5005902;28;20049;-81
2022/10/09 03:29:40;;;;;;;18.23;3.05;;;;;;;8.34;100.00;101780.25;5002071;28;20042;-81
2022/10/09 03:32:09;;;;;;;7.10;2.20;;;;;;;8.27;100.00;101779.56;4964957;28;20045;-80
2022/10/09 03:34:36;;;;;;;11.77;2.00;;;;;;;8.24;100.00;101784.03;4978411;28;20057;-80
2022/10/09 03:37:06;;;;;;;14.15;2.03;;;;;;;8.20;100.00;101783.28;4981339;28;20766;-81
2022/10/09 03:39:38;;;;;;;10.15;2.67;;;;;;;8.18;100.00;101781.59;5007892;28;20053;-80
2022/10/09 03:42:11;;;;;;;13.18;2.00;;;;;;;8.16;100.00;101786.91;4985655;28;20057;-80
2022/10/09 03:44:43;;;;;;;8.27;2.00;;;;;;;8.22;100.00;101788.47;4998711;28;20132;-80
2022/10/09 03:47:12;;;;;;;7.53;1.90;;;;;;;8.22;100.00;101791.97;4975358;28;20072;-81
2022/10/09 03:49:41;;;;;;;8.30;2.03;;;;;;;8.21;100.00;101787.63;4983016;28;20400;-81
2022/10/09 03:52:11;;;;;;;6.30;1.83;;;;;;;8.21;100.00;101794.63;4967445;28;20049;-81
2022/10/09 03:54:39;;;;;;;11.55;2.17;;;;;;;8.21;100.00;101795.50;5007664;28;20064;-83
2022/10/09 03:57:10;;;;;;;9.82;2.00;;;;;;;8.22;100.00;101798.97;5000012;28;20068;-81
2022/10/09 03:59:38;;;;;;;14.02;1.73;;;;;;;8.22;100.00;101791.09;5010544;28;20081;-80
2022/10/09 04:02:06;;;;;;;8.95;2.05;;;;;;;8.24;100.00;101790.16;4992866;28;20052;-81
2022/10/09 04:04:37;;;;;;;6.32;1.73;;;;;;;8.21;100.00;101797.25;4959007;28;20048;-81
2022/10/09 04:07:05;;;;;;;11.32;2.13;;;;;;;8.19;100.00;101797.28;4981768;28;20045;-80
2022/10/09 04:09:48;;;;;;;9.63;2.15;;;;;;;8.23;100.00;101803.31;4979402;28;20056;-83
2022/10/09 04:12:16;;;;;;;9.05;2.38;;;;;;;8.21;100.00;101799.88;4988262;28;20133;-81
2022/10/09 04:14:43;;;;;;;11.90;2.28;;;;;;;8.22;100.00;101807.69;4988924;28;20054;-81
2022/10/09 04:17:11;;;;;;;8.95;2.05;;;;;;;8.30;98.98;101804.84;5001803;28;20050;-81
2022/10/09 04:19:38;;;;;;;13.13;2.10;;;;;;;8.28;99.49;101809.28;4983651;28;20063;-80
2022/10/09 04:22:05;;;;;;;12.13;2.10;;;;;;;8.24;100.00;101807.63;4998423;28;20083;-82
2022/10/09 04:24:32;;;;;;;10.57;2.13;;;;;;;8.20;100.00;101808.66;4993540;28;20052;-81
2022/10/09 04:27:00;;;;;;;11.18;1.80;;;;;;;8.13;100.00;101814.06;4977566;28;20053;-81
2022/10/09 04:29:30;;;;;;;11.93;2.45;;;;;;;8.11;100.00;101821.16;4997532;28;20052;-83
2022/10/09 04:31:57;;;;;;;8.07;2.03;;;;;;;8.12;100.00;101822.00;4993749;28;20048;-82
2022/10/09 04:34:24;;;;;;;11.45;2.50;;;;;;;8.17;100.00;101817.47;4983457;28;20408;-81
2022/10/09 04:36:53;;;;;;;7.20;1.90;;;;;;;8.16;100.00;101826.25;4981278;28;20114;-81
2022/10/09 04:39:22;;;;;;;11.30;2.42;;;;;;;8.13;100.00;101813.22;4998529;28;20037;-81
2022/10/09 04:41:49;;;;;;;11.40;1.77;;;;;;;8.14;100.00;101814.94;4999362;28;20100;-80
2022/10/09 04:44:17;;;;;;;9.25;2.08;;;;;;;8.21;100.00;101818.25;4994496;28;20492;-80
2022/10/09 04:46:44;;;;;;;9.50;2.20;;;;;;;8.22;100.00;101819.97;4999818;28;20164;-81
2022/10/09 04:49:17;;;;;;;11.80;2.70;;;;;;;8.22;100.00;101812.94;4997813;28;20128;-82
2022/10/09 04:51:45;;;;;;;6.13;1.95;;;;;;;8.17;100.00;101820.09;4973654;28;20056;-81
2022/10/09 04:54:13;;;;;;;8.23;2.58;;;;;;;8.15;100.00;101819.28;4978523;28;20572;-81
2022/10/09 04:56:40;;;;;;;11.23;3.33;;;;;;;8.12;100.00;101819.38;4982270;28;20056;-81
2022/10/09 04:59:08;;;;;;;10.60;2.38;;;;;;;8.14;100.00;101820.19;4984836;28;20042;-80
2022/10/09 05:01:35;;;;;;;7.45;1.98;;;;;;;8.18;100.00;101826.19;5001257;28;20045;-81
2022/10/09 05:04:04;;;;;;;14.65;2.85;;;;;;;8.15;100.00;101824.53;4997225;28;20046;-80
2022/10/09 05:06:32;;;;;;;12.27;2.60;;;;;;;8.12;100.00;101824.63;4982214;28;20055;-80
2022/10/09 05:09:00;;;;;;;10.15;2.53;;;;;;;8.07;100.00;101840.50;4967821;28;20057;-81
2022/10/09 05:11:27;;;;;;;12.35;2.13;;;;;;;8.03;100.00;101840.63;4986532;28;20061;-81
2022/10/09 05:13:55;;;;;;;10.02;2.63;;;;;;;7.99;100.00;101831.13;4978722;28;20049;-81
2022/10/09 05:16:25;;;;;;;8.10;1.88;;;;;;;8.01;100.00;101835.41;4985093;28;20156;-81
2022/10/09 05:18:55;;;;;;;9.02;2.33;;;;;;;8.07;100.00;101840.50;4977792;28;20050;-80
2022/10/09 05:21:23;;;;;;;9.45;2.50;;;;;;;8.05;100.00;101844.06;4979545;28;20065;-81
2022/10/09 05:23:53;;;;;;;9.27;2.28;;;;;;;7.99;100.00;101844.25;4993902;28;20052;-81
2022/10/09 05:26:22;;;;;;;7.80;2.15;;;;;;;8.00;100.00;101846.81;4982763;28;20369;-81
2022/10/09 05:28:49;;;;;;;8.63;2.38;;;;;;;8.04;100.00;101850.22;4982846;28;20060;-81
2022/10/09 05:31:20;;;;;;;7.85;2.35;;;;;;;8.09;99.24;101857.03;4977502;28;20493;-80
2022/10/09 05:33:48;;;;;;;7.38;1.90;;;;;;;8.13;98.43;101852.56;4976543;28;20053;-80
2022/10/09 05:36:15;;;;;;;7.25;2.28;;;;;;;8.13;98.08;101861.28;4985858;28;20444;-82
2022/10/09 05:38:43;;;;;;;11.93;2.30;;;;;;;8.12;98.56;101858.72;4989270;28;20508;-82
2022/10/09 05:41:15;;;;;;;13.25;2.50;;;;;;;8.10;97.79;101860.50;4983027;28;20041;-80
2022/10/09 05:43:44;;;;;;;9.70;2.10;;;;;;;8.13;96.46;101863.06;5005252;28;20056;-81
2022/10/09 05:46:24;;;;;;;7.22;2.25;;;;;;;8.09;97.07;101862.28;4999119;28;20042;-81
2022/10/09 05:48:59;;;;;;;11.45;2.38;;;;;;;8.10;96.51;101868.38;4995444;28;20148;-82
2022/10/09 05:51:34;;;;;;;12.57;3.25;;;;;;;8.12;97.17;101872.69;4965311;28;20063;-83
2022/10/09 05:54:02;;;;;;;14.40;4.90;;;;;;;8.13;96.23;101865.69;4996723;28;20400;-80
2022/10/09 05:56:36;;;;;;;9.65;4.03;;;;;;;8.07;96.78;101879.84;4992311;28;20571;-81
2022/10/09 05:59:05;;;;;;;12.02;3.90;;;;;;;8.09;95.88;101890.28;4946478;28;20077;-80
2022/10/09 06:01:36;;;;;;;12.80;3.72;;;;;;;8.09;96.04;101888.50;5000737;28;20049;-81
2022/10/09 06:04:11;;;;;;;9.55;4.00;;;;;;;8.07;95.96;101892.94;4996324;28;20061;-80
2022/10/09 06:06:42;;;;;;;10.90;3.63;;;;;;;8.02;96.11;101886.13;5009832;28;20056;-81
2022/10/09 06:09:11;;;;;;;7.60;2.70;;;;;;;8.01;96.25;101898.34;4984884;28;20400;-81
2022/10/09 06:11:41;;;;;;;7.72;2.33;;;;;;;8.07;95.40;101892.94;4976994;28;20112;-81
2022/10/09 06:14:12;;;;;;;5.32;2.05;;;;;;;8.12;94.86;101892.81;4975507;28;20058;-82
2022/10/09 06:16:42;;;;;;;9.10;2.60;;;;;;;8.18;94.61;101897.03;4998900;28;20045;-80
2022/10/09 06:19:18;;;;;;;11.20;3.13;;;;;;;8.20;94.51;101897.84;4991883;28;20052;-82
2022/10/09 06:21:46;;;;;;;9.98;2.83;;;;;;;8.24;94.01;101902.06;4990962;28;20050;-82
2022/10/09 06:24:22;;;;;;;9.32;3.35;;;;;;;8.26;93.79;101908.16;4980982;28;20065;-81
2022/10/09 06:26:55;;;;;;;11.30;3.17;;;;;;;8.24;94.08;101909.94;4985376;28;20049;-81
2022/10/09 06:29:26;;;;;;;8.57;2.70;;;;;;;8.26;93.93;101916.88;4989201;28;20408;-81
2022/10/09 06:31:57;;;;;;;8.55;2.47;;;;;;;8.29;93.58;101918.56;4969655;28;20042;-80
2022/10/09 06:34:28;;;;;;;8.75;3.33;;;;;;;8.33;93.33;101915.81;5010881;28;20073;-81
2022/10/09 06:36:57;;;;;;;14.32;3.25;;;;;;;8.38;92.64;101920.97;4990919;28;20126;-81
2022/10/09 06:39:27;;;;;;;11.55;2.58;;;;;;;8.41;93.17;101922.63;4977236;28;20052;-80
2022/10/09 06:41:58;;;;;;;10.52;3.15;;;;;;;8.41;94.33;101923.47;4973426;28;20454;-82
2022/10/09 06:44:28;;;;;;;9.68;3.22;;;;;;;8.42;92.94;101925.22;4974781;28;20568;-81
2022/10/09 06:46:57;;;;;;;11.50;3.72;;;;;;;8.47;92.92;101925.09;4986059;28;20096;-80
2022/10/09 06:49:24;;;;;;;13.65;2.90;;;;;;;8.52;92.73;101926.66;4973453;28;20056;-81
2022/10/09 06:51:52;;;;;;;6.07;2.10;;;;;;;8.56;92.62;101933.56;4973911;28;20060;-82
2022/10/09 06:54:22;;;;;;;8.75;2.78;;;;;;;8.62;91.85;101940.38;4996293;28;20042;-81
2022/10/09 06:56:56;;;;;;;11.57;3.17;;;;;;;8.62;93.62;101935.13;4995339;28;20496;-81
2022/10/09 06:59:25;;;;;;;11.57;2.80;;;;;;;8.62;93.05;101935.97;4991601;28;20061;-82
2022/10/09 07:01:58;;;;;;;10.23;3.08;;;;;;;8.69;93.68;101946.28;5004945;28;20042;-83
2022/10/09 07:04:27;;;;;;;9.85;2.35;;;;;;;8.65;93.81;101947.31;5010212;28;20151;-81
2022/10/09 07:06:55;;;;;;;12.10;3.25;;;;;;;8.68;94.32;101950.69;4974241;28;20038;-81
2022/10/09 07:09:25;;;;;;;10.05;3.20;;;;;;;8.73;94.59;101947.91;4976799;28;20050;-83
2022/10/09 07:11:55;;;;;;;7.63;2.80;;;;;;;8.78;94.34;101949.53;4975034;28;20054;-82
2022/10/09 07:14:22;;;;;;;8.82;2.55;;;;;;;8.85;94.00;101950.19;4987323;28;20049;-81
2022/10/09 07:16:53;;;;;;;7.80;2.50;;;;;;;8.91;94.45;101949.97;4974378;28;20046;-81
2022/10/09 07:19:24;;;;;;;12.10;3.08;;;;;;;8.96;93.85;101953.34;4992532;28;20574;-82
2022/10/09 07:21:52;;;;;;;10.80;3.33;;;;;;;9.04;94.39;101953.94;4972243;28;20053;-81
2022/10/09 07:24:23;;;;;;;10.35;2.88;;;;;;;9.07;94.24;101956.50;4976903;28;20413;-82
2022/10/09 07:26:55;;;;;;;15.25;3.40;;;;;;;9.14;94.03;101962.44;4999630;28;20047;-82
2022/10/09 07:29:32;;;;;;;9.35;2.92;;;;;;;9.21;93.75;101963.94;4981121;28;20085;-81
2022/10/09 07:32:11;;;;;;;12.88;2.90;;;;;;;9.27;93.75;101953.22;4976022;28;20069;-81
2022/10/09 07:34:43;;;;;;;12.90;3.10;;;;;;;9.36;93.06;101962.56;4995663;28;20057;-81
2022/10/09 07:37:12;;;;;;;13.02;2.75;;;;;;;9.45;92.93;101966.66;4975197;28;20057;-82
2022/10/09 07:39:40;;;;;;;13.88;3.78;;;;;;;9.46;93.34;101968.41;4975201;28;20045;-81
2022/10/09 07:42:12;;;;;;;12.85;2.90;;;;;;;9.51;92.98;101975.22;4970791;28;20058;-81
2022/10/09 07:44:45;;;;;;;8.52;3.08;;;;;;;9.58;93.80;101975.88;4992246;28;20103;-80
2022/10/09 07:47:15;;;;;;;8.93;2.53;;;;;;;9.61;93.01;101970.53;4994977;28;20045;-83
2022/10/09 07:49:54;;;;;;;10.25;3.10;;;;;;;9.64;93.64;101973.06;4974785;28;20136;-81
2022/10/09 07:52:30;;;;;;;10.75;2.50;;;;;;;9.69;92.64;101971.13;4988247;28;20092;-81
2022/10/09 07:54:59;;;;;;;7.53;2.55;;;;;;;9.76;92.37;101977.03;4992196;28;20057;-83
2022/10/09 07:57:28;;;;;;;10.85;2.40;;;;;;;9.83;92.42;101975.91;4975345;28;20140;-80
2022/10/09 07:59:55;;;;;;;14.35;3.10;;;;;;;9.89;92.40;101979.19;4989369;28;20057;-80
2022/10/09 08:02:22;;;;;;;9.27;2.67;;;;;;;9.98;91.86;101985.03;4972446;28;20133;-81
2022/10/09 08:04:50;;;;;;;9.95;3.08;;;;;;;10.07;92.06;101982.94;4974443;28;20092;-81
2022/10/09 08:07:20;;;;;;;12.00;3.22;;;;;;;10.11;91.43;101986.34;4956534;28;20054;-81
2022/10/09 08:09:47;;;;;;;11.38;4.07;;;;;;;10.15;91.64;101986.19;4985250;28;22116;-83
2022/10/09 08:12:15;;;;;;;6.82;2.58;;;;;;;10.19;91.67;101986.94;4972303;28;20042;-81
2022/10/09 08:14:45;;;;;;;9.43;2.72;;;;;;;10.23;91.12;101983.28;4989172;28;20137;-83
2022/10/09 08:17:14;;;;;;;7.75;2.85;;;;;;;10.26;90.97;101982.31;4991125;28;20049;-79
2022/10/09 08:19:42;;;;;;;11.48;3.28;;;;;;;10.31;90.83;101988.28;4973918;28;20049;-80
2022/10/09 08:22:11;;;;;;;11.45;3.30;;;;;;;10.37;91.01;101994.19;5005718;28;20678;-80
2022/10/09 08:24:38;;;;;;;9.20;2.78;;;;;;;10.44;90.81;101997.44;4999175;28;20045;-81
2022/10/09 08:27:15;;;;;;;8.20;2.70;;;;;;;10.48;90.19;101996.44;4977152;28;20046;-79
2022/10/09 08:29:42;;;;;;;10.40;3.13;;;;;;;10.54;90.65;101990.97;4974194;28;20397;-81
2022/10/09 08:32:10;;;;;;;8.40;2.83;;;;;;;10.63;90.57;101995.88;4989414;28;20158;-80
2022/10/09 08:34:38;;;;;;;9.48;2.95;;;;;;;10.72;90.18;101991.19;4988745;28;20042;-81
2022/10/09 08:37:05;;;;;;;13.95;3.78;;;;;;;10.77;90.17;101994.50;4990177;28;20053;-82
2022/10/09 08:39:33;;;;;;;10.55;3.65;;;;;;;10.83;90.10;102002.16;4974961;28;20042;-81
2022/10/09 08:42:02;;;;;;;14.60;4.57;;;;;;;10.89;90.58;102008.03;4977849;28;20122;-83
2022/10/09 08:44:38;;;;;;;15.50;3.15;;;;;;;10.93;90.30;102000.03;4974658;28;20133;-80
2022/10/09 08:47:17;;;;;;;13.80;3.60;;;;;;;10.98;89.76;102006.84;4981400;28;20073;-81
2022/10/09 08:50:14;;;;;;;14.20;3.13;;;;;;;11.07;89.60;102008.25;4992651;28;20046;-80
2022/10/09 08:53:04;;;;;;;13.73;3.25;;;;;;;11.13;89.74;101998.34;4991980;28;20049;-80
2022/10/09 08:55:48;;;;;;;13.95;3.78;;;;;;;11.17;89.87;101993.81;4995909;28;20049;-81
2022/10/09 08:58:18;;;;;;;12.98;3.05;;;;;;;11.27;88.83;101997.81;4976260;28;20077;-80
2022/10/09 09:00:51;;;;;;;10.15;3.33;;;;;;;11.35;89.05;102001.00;4978312;28;20397;-83
2022/10/09 09:03:28;;;;;;;9.82;2.90;;;;;;;11.45;88.62;101993.56;4978146;28;20056;-82
2022/10/09 09:06:04;;;;;;;12.60;4.03;;;;;;;11.53;88.25;101994.13;4976015;28;20042;-81
2022/10/09 09:08:46;;;;;;;9.55;3.40;;;;;;;11.59;87.68;102003.56;4970034;28;20038;-81
2022/10/09 09:11:46;;;;;;;9.80;2.75;;;;;;;11.64;87.69;101998.94;4980531;28;20080;-80
2022/10/09 09:15:01;;;;;;;17.42;3.30;;;;;;;11.73;87.49;102006.47;4997410;28;20053;-79
2022/10/09 09:17:52;;;;;;;9.95;3.38;;;;;;;11.83;87.31;101999.91;4936800;29;20055;-81
2022/10/09 09:20:19;;;;;;;13.30;4.55;;;;;;;11.98;85.96;101995.78;4920662;29;20562;-81
2022/10/09 09:22:50;;;;;;;16.42;3.88;;;;;;;12.06;85.29;101991.00;4952268;28;20048;-82
2022/10/09 09:25:24;;;;;;;16.85;3.40;;;;;;;12.14;84.72;101995.97;4992607;28;20053;-82
2022/10/09 09:27:57;;;;;;;14.35;3.47;;;;;;;12.16;84.25;101994.97;4976256;28;20396;-82
2022/10/09 09:30:37;;;;;;;13.27;3.30;;;;;;;12.26;84.65;101998.06;4969909;28;20052;-79
2022/10/09 09:33:20;;;;;;;11.27;3.17;;;;;;;12.36;84.56;101991.44;4967093;28;20402;-82
2022/10/09 09:36:29;;;;;;;13.13;3.60;;;;;;;12.47;84.67;101995.38;4969441;28;20051;-79
2022/10/09 09:38:57;;;;;;;11.05;3.28;;;;;;;12.54;83.48;101994.19;4938920;28;20139;-82
2022/10/09 09:41:45;;;;;;;12.55;2.75;;;;;;;12.65;83.74;101994.56;4969779;28;20062;-80
2022/10/09 09:44:15;;;;;;;8.57;2.47;;;;;;;12.74;83.41;101980.91;4972832;28;20061;-80
2022/10/09 09:46:43;;;;;;;14.63;3.20;;;;;;;12.83;83.12;101993.72;4966582;28;20409;-79
2022/10/09 09:49:22;;;;;;;15.18;2.47;;;;;;;12.94;82.64;101980.00;4983333;28;20041;-81
2022/10/09 09:51:55;;;;;;;13.75;3.03;;;;;;;12.99;80.96;101987.72;4987322;28;20038;-81
2022/10/09 09:54:25;;;;;;;10.50;2.72;;;;;;;13.02;80.54;101991.06;4971733;28;20050;-82
2022/10/09 09:57:14;;;;;;;16.30;2.65;;;;;;;13.14;79.52;101985.19;4990518;28;20085;-79
2022/10/09 09:59:48;;;;;;;12.82;2.22;;;;;;;13.21;79.31;101990.19;4941103;28;20078;-81
2022/10/09 10:02:26;;;;;;;12.10;2.22;;;;;;;13.25;78.20;101975.94;5002619;28;20057;-80
2022/10/09 10:05:02;;;;;;;11.43;3.92;;;;;;;13.33;79.45;101979.91;5006478;28;20030;-80
2022/10/09 10:07:59;;;;;;;12.45;3.20;;;;;;;13.48;78.80;101978.31;4972528;28;20050;-80
2022/10/09 10:10:26;;;;;;;12.52;2.72;;;;;;;13.54;76.24;101980.63;4972665;28;20141;-81
2022/10/09 10:13:02;;;;;;;10.93;2.08;;;;;;;13.59;75.60;101981.25;4969083;28;20056;-80
2022/10/09 10:15:37;;;;;;;22.92;2.90;;;;;;;13.61;75.80;101975.91;4981536;28;20073;-81
2022/10/09 10:18:07;;;;;;;7.57;2.15;;;;;;;13.62;76.34;101964.38;4972993;28;20046;-80
2022/10/09 10:20:48;;;;;;;14.07;2.45;;;;;;;13.75;75.76;101973.41;4949713;28;20078;-81
2022/10/09 10:24:07;;;;;;;10.13;2.47;;;;;;;13.87;74.95;101971.94;4981302;28;20052;-81
2022/10/09 10:26:42;;;;;;;12.25;2.50;;;;;;;13.84;71.24;101961.50;4982475;28;20046;-81
2022/10/09 10:29:21;;;;;;;7.28;1.90;;;;;;;13.90;72.52;101967.31;4974039;28;20128;-80
2022/10/09 10:32:10;;;;;;;16.00;2.80;;;;;;;14.00;71.86;101974.78;4974542;28;20050;-81
2022/10/09 10:35:05;;;;;;;11.15;2.70;;;;;;;14.14;72.92;101967.88;4973027;28;20046;-80
2022/10/09 10:37:45;;;;;;;12.45;2.63;;;;;;;14.28;72.36;101959.19;4990262;28;20058;-82
2022/10/09 10:40:25;;;;;;;11.38;2.55;;;;;;;14.43;71.81;101962.81;4961369;28;20042;-81
2022/10/09 10:43:11;;;;;;;9.38;1.67;;;;;;;14.59;70.48;101958.44;4975824;28;20670;-82
2022/10/09 10:45:43;;;;;;;9.82;2.10;;;;;;;14.81;69.60;101962.53;5008130;28;20046;-79
2022/10/09 10:48:27;;;;;;;8.38;2.47;;;;;;;14.87;66.49;101959.56;4971983;28;20043;-80
2022/10/09 10:51:04;;;;;;;11.73;2.75;;;;;;;14.96;65.55;101955.53;4976546;28;20052;-81
2022/10/09 10:53:51;;;;;;;8.38;1.85;;;;;;;15.00;65.46;101944.66;4958967;28;20042;-80
2022/10/09 10:56:37;;;;;;;9.68;2.50;;;;;;;15.20;66.60;101949.69;4975016;28;20057;-82
2022/10/09 10:59:38;;;;;;;7.22;1.92;;;;;;;15.35;64.50;101944.44;4971955;28;20041;-80
2022/10/09 11:02:28;;;;;;;9.40;1.77;;;;;;;15.49;64.30;101936.53;4977176;28;20429;-82
2022/10/09 11:05:21;;;;;;;12.05;2.20;;;;;;;15.65;63.55;101942.66;4983600;28;20043;-81
2022/10/09 11:08:07;;;;;;;14.63;2.38;;;;;;;15.75;62.24;101937.66;4971983;28;20053;-82
2022/10/09 11:10:41;;;;;;;;;;;;;;;15.68;60.73;101937.19;4973515;28;20062;-80
2022/10/09 11:13:22;;;;;;;10.35;2.22;;;;;;;15.76;62.35;101938.50;4980098;28;19928;-80
2022/10/09 11:16:33;;;;;;;11.30;1.90;;;;;;;16.01;61.68;101936.09;4976854;28;20129;-80
2022/10/09 11:20:11;;;;;;;8.10;1.77;;;;;;;16.35;58.54;101929.56;4957665;28;20126;-81
2022/10/09 11:23:01;;;;;;;8.68;2.00;;;;;;;16.56;58.10;101929.16;4961336;28;20082;-81
2022/10/09 11:25:47;;;;;;;8.82;2.25;;;;;;;16.81;58.15;101926.69;5004160;28;20057;-84
2022/10/09 11:28:55;;;;;;;5.20;1.60;;;;;;;16.92;57.41;101923.31;4975745;28;20042;-81
2022/10/09 11:31:50;;;;;;;22.33;2.53;;;;;;;17.17;56.06;101920.75;4960041;28;20053;-81
2022/10/09 11:34:45;;;;;;;13.95;2.53;;;;;;;17.38;53.66;101923.81;5004312;28;20046;-81
2022/10/09 11:37:20;;;;;;;7.38;1.75;;;;;;;17.63;54.86;101917.66;5002250;28;20042;-81
2022/10/09 11:39:47;;;;;;;6.72;1.58;;;;;;;17.85;54.05;101908.25;4988486;28;20164;-81
2022/10/09 11:42:19;;;;;;;5.38;1.52;;;;;;;18.06;53.34;101913.91;4974968;28;20181;-79
2022/10/09 11:44:57;;;;;;;6.38;1.75;;;;;;;18.32;52.37;101906.72;4982897;28;20041;-80
2022/10/09 11:47:41;;;;;;;11.07;1.67;;;;;;;18.54;51.37;101898.88;4974814;28;20056;-81
2022/10/09 11:50:35;;;;;;;12.73;2.63;;;;;;;18.74;48.78;101900.16;4970596;28;20045;-84
2022/10/09 11:53:10;;;;;;;7.53;1.80;;;;;;;18.94;48.61;101898.66;4966402;28;20559;-85
2022/10/09 11:55:42;;;;;;;12.80;2.08;;;;;;;19.14;48.34;101887.38;4956693;28;20049;-83